Terminal Aerodrome Forecast
Issued by NWS

Home | Current Version | Previous Version | Text Only | Print | Product List | Glossary On
Versions: 1 2 3 4 5 6 7 8 9 10 11 12 13 14 15
000
FTUS43 KIWX 191100
TAFSBN
TAF
KSBN 191133Z 1912/2012 15012KT P6SM BKN040 OVC080
     FM191330 17013G20KT 3SM -SN BR OVC025
      TEMPO 1914/1917 1SM -SN BR BKN015
     FM191800 24017G24KT 4SM -SN BLSN OVC020
     FM200000 26015G23KT 2SM -SHSN BLSN OVC015
     FM200700 26013G20KT 4SM -SHSN SCT015 OVC025=

USA.gov is the U.S. government's official web portal to all federal, state and local government web resources and services.